Monterey, IN (46960)

09:59 EDT le 25 septembre 2016 (GMT -0400)
KINCULVE3 | | Change Station

Alt. 791 ft 41.23 °N, 86.42 °W | Updated 4 seconds ago

Scattered Clouds
Nuages épars
65.7 ° F
Paraît 65.7 ° F
N
1.6
Vent Variable Vent de SE
Gusts 2.5 mph

Aujourd'hui
Haut(e) -- | Bas -- ° F
--% Risque de précip.
Hier
Haut(e) -- | Bas -- ° F
Precip. -- pouce
Pression 30.13 pouce
Visibilité 4.0 Miles terrestres
Nuages Nuages épars 7500 ft
Point de rosée 42 ° F
Humidité 42%
Précipitations 0.00 pouce
Profondeur de la couche neigeuse Non disponible.
7:37 AM 7:37 PM
Lune descendante, 27% visible
METAR KOXI 251355Z AUTO 15006KT 4SM SCT075 18/00 A3013 RMK AO1
Pression 30.13 pouce
Visibilité 4.0 Miles terrestres
Nuages Nuages épars 7500 ft
Point de rosée 42 ° F
Humidité 42%
Précipitations 0.00 pouce
Profondeur de la couche neigeuse Non disponible.
7:37 AM 7:37 PM
Lune descendante, 27% visible
METAR KOXI 251355Z AUTO 15006KT 4SM SCT075 18/00 A3013 RMK AO1

10-Day Weather Forecast

Almanac

Astronomie

Sep. 25, 2016 Lever Coucher
Temps réel
Crépuscule civil
Crépuscule nautique
Crépuscule astronomique
Lune
Durée de lumière visible
Longueur du jour
Tomorrow will be .
, % of the Moon is Illuminated

Extrêmes aujourd'hui

State Highs State Lows

Community

WunderPhotos

Upload Photos

1,941,609 Photos téléchargées !

WunderBlog® & News

Nearby

Qualité de l'air

  Qualité de l'air Indice de la qualité de l'air Polluant
Not available.

Épaisseur de neige

Station Depth Altitude

Activité sismique

Ville Distance Mag. Time & Date
Minimum magnitude displayed is 2.5.

Températures des eaux côtières

Lieu Température

Stations

Stations météo à proximité

Emplacement de la station Température Refroidissement éolien Point de rosée Humidité Vent Precip. Alt. Mise à jour Type
                   

Watches & Warnings

There are currently no watches in effect.